createdAt,value
2023-12-10T00:01:03.578Z,100.00
2023-12-10T00:03:31.916Z,100.00
2023-12-10T00:06:07.192Z,100.00
2023-12-10T00:08:41.674Z,100.00
2023-12-10T00:11:09.081Z,100.00
2023-12-10T00:13:36.462Z,100.00
2023-12-10T00:16:03.344Z,100.00
2023-12-10T00:18:31.538Z,100.00
2023-12-10T00:20:58.739Z,100.00
2023-12-10T00:23:25.750Z,100.00
2023-12-10T00:25:52.649Z,100.00
2023-12-10T00:28:19.598Z,100.00
2023-12-10T00:30:48.834Z,100.00
2023-12-10T00:33:17.432Z,100.00
2023-12-10T00:35:44.627Z,100.00
2023-12-10T00:38:13.669Z,100.00
2023-12-10T00:40:40.974Z,100.00
2023-12-10T00:43:07.981Z,100.00
2023-12-10T00:45:37.051Z,100.00
2023-12-10T00:48:07.585Z,100.00
2023-12-10T00:50:34.966Z,100.00
2023-12-10T00:53:05.170Z,100.00
2023-12-10T00:55:32.414Z,100.00
2023-12-10T00:57:59.430Z,100.00
2023-12-10T01:00:26.316Z,100.00
2023-12-10T01:02:53.699Z,100.00
2023-12-10T01:05:20.786Z,100.00
2023-12-10T01:07:50.208Z,100.00
2023-12-10T01:10:17.118Z,100.00
2023-12-10T01:12:46.295Z,100.00
2023-12-10T01:15:13.658Z,100.00
2023-12-10T01:17:43.211Z,100.00
2023-12-10T01:20:10.862Z,100.00
2023-12-10T01:22:38.690Z,100.00
2023-12-10T01:25:06.298Z,100.00
2023-12-10T01:27:33.468Z,100.00
2023-12-10T01:30:00.473Z,100.00
2023-12-10T01:32:27.688Z,100.00
2023-12-10T01:34:55.021Z,100.00
2023-12-10T01:37:22.520Z,100.00
2023-12-10T01:39:51.014Z,100.00
2023-12-10T01:42:18.502Z,100.00
2023-12-10T01:44:45.314Z,100.00
2023-12-10T01:47:13.456Z,100.00
2023-12-10T01:49:40.720Z,100.00
2023-12-10T01:52:09.163Z,100.00
2023-12-10T01:54:41.271Z,100.00
2023-12-10T01:57:09.174Z,100.00
2023-12-10T01:59:37.721Z,100.00
2023-12-10T02:02:06.883Z,100.00
2023-12-10T02:04:33.725Z,100.00
2023-12-10T02:07:01.415Z,100.00
2023-12-10T02:09:28.548Z,100.00
2023-12-10T02:11:55.963Z,100.00
2023-12-10T02:14:23.016Z,100.00
2023-12-10T02:16:51.099Z,100.00
2023-12-10T02:19:18.499Z,100.00
2023-12-10T02:21:47.786Z,100.00
2023-12-10T02:24:22.396Z,100.00
2023-12-10T02:26:49.600Z,100.00
2023-12-10T02:29:17.478Z,100.00
2023-12-10T02:31:44.461Z,100.00
2023-12-10T02:34:11.425Z,100.00
2023-12-10T02:36:38.917Z,100.00
2023-12-10T02:39:07.685Z,100.00
2023-12-10T02:41:34.756Z,100.00
2023-12-10T02:44:01.642Z,100.00
2023-12-10T02:46:28.615Z,100.00
2023-12-10T02:48:56.656Z,100.00
2023-12-10T02:51:23.584Z,100.00
2023-12-10T02:53:51.534Z,100.00
2023-12-10T02:56:19.621Z,100.00
2023-12-10T02:58:46.462Z,100.00
2023-12-10T03:01:13.817Z,100.00
2023-12-10T03:03:40.964Z,100.00
2023-12-10T03:06:08.655Z,100.00
2023-12-10T03:08:36.851Z,100.00
2023-12-10T03:11:03.707Z,100.00
2023-12-10T03:13:31.842Z,100.00
2023-12-10T03:15:59.294Z,100.00
2023-12-10T03:18:27.895Z,100.00
2023-12-10T03:20:55.086Z,100.00
2023-12-10T03:23:22.458Z,100.00
2023-12-10T03:25:49.507Z,100.00
2023-12-10T03:28:16.439Z,100.00
2023-12-10T03:30:43.465Z,100.00
2023-12-10T03:33:11.540Z,100.00
2023-12-10T03:35:38.843Z,100.00
2023-12-10T03:38:05.716Z,100.00
2023-12-10T03:40:32.717Z,100.00
2023-12-10T03:42:59.846Z,100.00
2023-12-10T03:45:27.081Z,100.00
2023-12-10T03:47:56.074Z,100.00
2023-12-10T03:50:23.095Z,100.00
2023-12-10T03:52:50.017Z,100.00
2023-12-10T03:55:18.373Z,100.00
2023-12-10T03:57:47.425Z,100.00
2023-12-10T04:00:14.640Z,100.00
2023-12-10T04:02:41.907Z,100.00
2023-12-10T04:05:13.762Z,100.00
2023-12-10T04:07:42.039Z,100.00
2023-12-10T04:10:10.669Z,100.00
2023-12-10T04:12:39.109Z,100.00
2023-12-10T04:15:07.022Z,100.00
2023-12-10T04:17:34.431Z,100.00
2023-12-10T04:20:01.930Z,100.00
2023-12-10T04:22:29.494Z,100.00
2023-12-10T04:24:56.832Z,100.00
2023-12-10T04:27:24.512Z,100.00
2023-12-10T04:29:52.485Z,100.00
2023-12-10T04:32:19.553Z,100.00
2023-12-10T04:34:54.022Z,100.00
2023-12-10T04:37:21.167Z,100.00
2023-12-10T04:39:49.693Z,100.00
2023-12-10T04:42:19.872Z,100.00
2023-12-10T04:44:47.089Z,100.00
2023-12-10T04:47:14.981Z,100.00
2023-12-10T04:49:42.431Z,100.00
2023-12-10T04:52:09.879Z,100.00
2023-12-10T04:54:37.073Z,100.00
2023-12-10T04:57:04.699Z,100.00
2023-12-10T04:59:32.008Z,100.00
2023-12-10T05:01:58.801Z,100.00
2023-12-10T05:04:26.271Z,100.00
2023-12-10T05:06:56.228Z,100.00
2023-12-10T05:09:23.289Z,100.00
2023-12-10T05:11:50.201Z,100.00
2023-12-10T05:14:17.178Z,100.00
2023-12-10T05:16:47.018Z,100.00
2023-12-10T05:19:14.215Z,100.00
2023-12-10T05:21:41.321Z,100.00
2023-12-10T05:24:09.751Z,100.00
2023-12-10T05:26:39.404Z,100.00
2023-12-10T05:29:07.618Z,100.00
2023-12-10T05:31:35.595Z,100.00
2023-12-10T05:34:02.697Z,100.00
2023-12-10T05:36:31.145Z,100.00
2023-12-10T05:38:59.019Z,100.00
2023-12-10T05:41:26.111Z,100.00
2023-12-10T05:43:52.865Z,100.00
2023-12-10T05:46:20.221Z,100.00
2023-12-10T05:48:47.430Z,100.00
2023-12-10T05:51:16.902Z,100.00
2023-12-10T05:53:44.297Z,100.00
2023-12-10T05:56:11.284Z,100.00
2023-12-10T05:58:38.148Z,100.00
2023-12-10T06:01:05.322Z,100.00
2023-12-10T06:03:32.848Z,100.00
2023-12-10T06:06:01.394Z,100.00
2023-12-10T06:08:30.436Z,100.00
2023-12-10T06:10:58.540Z,100.00
2023-12-10T06:13:27.683Z,100.00
2023-12-10T06:15:59.000Z,100.00
2023-12-10T06:18:26.054Z,100.00
2023-12-10T06:20:52.905Z,100.00
2023-12-10T06:23:20.935Z,100.00
2023-12-10T06:25:49.972Z,100.00
2023-12-10T06:28:16.819Z,100.00
2023-12-10T06:30:43.790Z,100.00
2023-12-10T06:33:10.859Z,100.00
2023-12-10T06:35:38.294Z,100.00
2023-12-10T06:38:05.103Z,100.00
2023-12-10T06:40:33.018Z,100.00
2023-12-10T06:43:02.204Z,100.00
2023-12-10T06:45:29.667Z,100.00
2023-12-10T06:47:56.491Z,100.00
2023-12-10T06:50:27.727Z,100.00
2023-12-10T06:52:54.929Z,100.00
2023-12-10T06:55:21.881Z,100.00
2023-12-10T06:57:54.410Z,100.00
2023-12-10T07:00:22.559Z,99.01
2023-12-10T07:02:52.857Z,99.23
2023-12-10T07:05:19.837Z,98.60
2023-12-10T07:07:46.839Z,98.68
2023-12-10T07:10:15.907Z,97.84
2023-12-10T07:12:42.941Z,98.40
2023-12-10T07:15:10.762Z,98.49
2023-12-10T07:17:39.055Z,97.18
2023-12-10T07:20:10.725Z,96.99
2023-12-10T07:22:38.632Z,96.82
2023-12-10T07:25:08.379Z,96.98
2023-12-10T07:27:40.489Z,96.55
2023-12-10T07:30:09.211Z,96.93
2023-12-10T07:32:36.334Z,97.70
2023-12-10T07:35:04.934Z,97.07
2023-12-10T07:37:32.302Z,96.86
2023-12-10T07:40:00.391Z,96.38
2023-12-10T07:42:28.313Z,97.14
2023-12-10T07:44:55.999Z,96.49
2023-12-10T07:47:23.049Z,97.00
2023-12-10T07:49:57.096Z,96.70
2023-12-10T07:52:24.206Z,97.41
2023-12-10T07:54:56.171Z,96.38
2023-12-10T07:57:24.457Z,96.75
2023-12-10T07:59:51.558Z,96.31
2023-12-10T08:02:19.573Z,96.62
2023-12-10T08:04:46.802Z,97.16
2023-12-10T08:07:14.137Z,97.22
2023-12-10T08:09:42.153Z,97.10
2023-12-10T08:12:09.557Z,96.73
2023-12-10T08:14:36.778Z,97.04
2023-12-10T08:17:06.877Z,97.40
2023-12-10T08:19:34.192Z,97.29
2023-12-10T08:22:03.096Z,97.11
2023-12-10T08:24:30.233Z,96.61
2023-12-10T08:26:57.349Z,96.22
2023-12-10T08:29:25.268Z,95.62
2023-12-10T08:31:53.180Z,95.82
2023-12-10T08:34:20.215Z,95.27
2023-12-10T08:36:47.059Z,96.56
2023-12-10T08:39:14.761Z,97.52
2023-12-10T08:41:42.585Z,96.34
2023-12-10T08:44:12.955Z,95.62
2023-12-10T08:46:40.076Z,95.57
2023-12-10T08:49:10.138Z,96.90
2023-12-10T08:51:38.604Z,98.25
2023-12-10T08:54:07.008Z,100.00
2023-12-10T08:56:34.858Z,100.00
2023-12-10T08:59:03.025Z,100.00
2023-12-10T09:01:31.573Z,100.00
2023-12-10T09:04:01.086Z,100.00
2023-12-10T09:06:28.515Z,100.00
2023-12-10T09:08:55.504Z,100.00
2023-12-10T09:11:22.777Z,100.00
2023-12-10T09:13:50.862Z,100.00
2023-12-10T09:16:20.377Z,100.00
2023-12-10T09:18:47.397Z,100.00
2023-12-10T09:21:14.711Z,100.00
2023-12-10T09:23:42.455Z,100.00
2023-12-10T09:26:09.555Z,100.00
2023-12-10T09:28:38.139Z,100.00
2023-12-10T09:31:05.121Z,100.00
2023-12-10T09:33:33.381Z,100.00
2023-12-10T09:36:01.147Z,100.00
2023-12-10T09:38:28.505Z,100.00
2023-12-10T09:40:55.558Z,100.00
2023-12-10T09:43:23.173Z,100.00
2023-12-10T09:45:51.431Z,100.00
2023-12-10T09:48:19.526Z,100.00
2023-12-10T09:50:46.742Z,100.00
2023-12-10T09:53:15.753Z,100.00
2023-12-10T09:55:43.780Z,100.00
2023-12-10T09:58:10.797Z,100.00
2023-12-10T10:00:39.317Z,100.00
2023-12-10T10:03:08.371Z,100.00
2023-12-10T10:05:37.338Z,100.00
2023-12-10T10:08:05.008Z,100.00
2023-12-10T10:10:32.831Z,100.00
2023-12-10T10:13:01.444Z,100.00
2023-12-10T10:15:30.640Z,100.00
2023-12-10T10:17:59.116Z,100.00
2023-12-10T10:20:27.588Z,100.00
2023-12-10T10:22:58.605Z,100.00
2023-12-10T10:25:26.006Z,100.00
2023-12-10T10:27:53.901Z,100.00
2023-12-10T10:30:21.825Z,100.00
2023-12-10T10:32:50.357Z,100.00
2023-12-10T10:35:17.699Z,100.00
2023-12-10T10:37:44.759Z,100.00
2023-12-10T10:40:12.341Z,100.00
2023-12-10T10:42:39.787Z,100.00
2023-12-10T10:45:10.202Z,100.00
2023-12-10T10:47:38.539Z,100.00
2023-12-10T10:50:21.529Z,100.00
2023-12-10T10:52:53.619Z,100.00
2023-12-10T10:55:22.052Z,100.00
2023-12-10T10:57:49.091Z,100.00
2023-12-10T11:00:21.828Z,100.00
2023-12-10T11:02:54.284Z,100.00
2023-12-10T11:05:36.469Z,100.00
2023-12-10T11:08:09.748Z,100.00
2023-12-10T11:10:43.449Z,100.00
2023-12-10T11:13:10.514Z,100.00
2023-12-10T11:15:38.046Z,100.00
2023-12-10T11:18:08.004Z,100.00
2023-12-10T11:20:48.519Z,100.00
2023-12-10T11:23:18.605Z,100.00
2023-12-10T11:25:48.235Z,100.00
2023-12-10T11:28:18.787Z,100.00
2023-12-10T11:30:50.867Z,100.00
2023-12-10T11:33:20.076Z,100.00
2023-12-10T11:36:17.514Z,100.00
2023-12-10T11:38:37.818Z,100.00
2023-12-10T11:41:05.329Z,100.00
2023-12-10T11:43:33.248Z,100.00
2023-12-10T11:46:00.461Z,100.00
2023-12-10T11:48:28.413Z,100.00
2023-12-10T11:50:56.801Z,100.00
2023-12-10T11:53:24.957Z,100.00
2023-12-10T11:55:53.781Z,100.00
2023-12-10T11:58:28.530Z,100.00
2023-12-10T12:01:06.558Z,100.00
2023-12-10T12:03:36.179Z,100.00
2023-12-10T12:06:05.697Z,100.00
2023-12-10T12:08:33.384Z,100.00
2023-12-10T12:11:00.722Z,100.00
2023-12-10T12:13:32.078Z,100.00
2023-12-10T12:15:59.142Z,100.00
2023-12-10T12:18:28.988Z,100.00
2023-12-10T12:20:56.156Z,100.00
2023-12-10T12:23:23.077Z,100.00
2023-12-10T12:25:51.011Z,100.00
2023-12-10T12:28:21.448Z,100.00
2023-12-10T12:30:48.378Z,100.00
2023-12-10T12:33:17.377Z,100.00
2023-12-10T12:35:44.390Z,100.00
2023-12-10T12:38:12.432Z,100.00
2023-12-10T12:40:39.281Z,100.00
2023-12-10T12:43:06.294Z,100.00
2023-12-10T12:45:34.851Z,100.00
2023-12-10T12:48:02.272Z,100.00
2023-12-10T12:50:31.657Z,100.00
2023-12-10T12:53:00.807Z,100.00
2023-12-10T12:55:28.613Z,100.00
2023-12-10T12:57:56.242Z,100.00
2023-12-10T13:00:23.771Z,100.00
2023-12-10T13:02:51.236Z,100.00
2023-12-10T13:05:18.294Z,100.00
2023-12-10T13:07:47.197Z,100.00
2023-12-10T13:10:15.300Z,100.00
2023-12-10T13:12:43.235Z,100.00
2023-12-10T13:15:10.861Z,100.00
2023-12-10T13:17:39.813Z,100.00
2023-12-10T13:20:07.947Z,100.00
2023-12-10T13:22:35.202Z,100.00
2023-12-10T13:25:06.280Z,100.00
2023-12-10T13:27:35.298Z,100.00
2023-12-10T13:30:02.332Z,100.00
2023-12-10T13:32:29.252Z,100.00
2023-12-10T13:34:56.681Z,100.00
2023-12-10T13:37:23.805Z,100.00
2023-12-10T13:39:51.715Z,100.00
2023-12-10T13:42:22.016Z,100.00
2023-12-10T13:44:49.001Z,100.00
2023-12-10T13:47:16.635Z,100.00
2023-12-10T13:49:44.669Z,100.00
2023-12-10T13:52:13.183Z,100.00
2023-12-10T13:54:40.439Z,100.00
2023-12-10T13:57:07.310Z,100.00
2023-12-10T13:59:35.366Z,100.00
2023-12-10T14:02:10.061Z,100.00
2023-12-10T14:04:37.070Z,100.00
2023-12-10T14:07:04.649Z,100.00
2023-12-10T14:09:33.921Z,100.00
2023-12-10T14:12:01.739Z,100.00
2023-12-10T14:14:28.743Z,100.00
2023-12-10T14:16:55.888Z,100.00
2023-12-10T14:19:23.061Z,100.00
2023-12-10T14:21:54.165Z,100.00
2023-12-10T14:24:22.387Z,100.00
2023-12-10T14:26:49.821Z,100.00
2023-12-10T14:29:17.444Z,100.00
2023-12-10T14:31:48.623Z,100.00
2023-12-10T14:34:15.849Z,100.00
2023-12-10T14:36:43.609Z,100.00
2023-12-10T14:39:11.664Z,100.00
2023-12-10T14:41:40.063Z,100.00
2023-12-10T14:44:07.709Z,100.00
2023-12-10T14:49:19.338Z,100.00
2023-12-10T14:51:48.315Z,100.00
2023-12-10T14:54:17.489Z,100.00
2023-12-10T14:56:44.657Z,100.00
2023-12-10T14:59:12.638Z,100.00
2023-12-10T15:01:39.654Z,100.00
2023-12-10T15:04:07.159Z,100.00
2023-12-10T15:06:34.190Z,100.00
2023-12-10T15:09:03.581Z,100.00
2023-12-10T15:11:33.539Z,100.00
2023-12-10T15:14:00.856Z,100.00
2023-12-10T15:16:27.723Z,100.00
2023-12-10T15:18:55.160Z,100.00
2023-12-10T15:21:23.434Z,100.00
2023-12-10T15:23:50.642Z,100.00
2023-12-10T15:26:19.576Z,100.00
2023-12-10T15:28:47.843Z,100.00
2023-12-10T15:31:15.328Z,100.00
2023-12-10T15:33:42.634Z,100.00
2023-12-10T15:36:14.737Z,100.00
2023-12-10T15:38:42.321Z,100.00
2023-12-10T15:41:09.878Z,100.00
2023-12-10T15:43:36.948Z,100.00
2023-12-10T15:46:04.297Z,100.00
2023-12-10T15:48:32.369Z,100.00
2023-12-10T15:51:02.995Z,100.00
2023-12-10T15:53:32.102Z,100.00
2023-12-10T15:55:59.397Z,100.00
2023-12-10T15:58:27.893Z,100.00
2023-12-10T16:00:54.967Z,100.00
2023-12-10T16:03:23.798Z,100.00
2023-12-10T16:05:51.639Z,100.00
2023-12-10T16:08:20.826Z,100.00
2023-12-10T16:10:48.244Z,100.00
2023-12-10T16:13:20.357Z,100.00
2023-12-10T16:15:49.837Z,100.00
2023-12-10T16:18:16.854Z,100.00
2023-12-10T16:20:46.416Z,100.00
2023-12-10T16:23:15.826Z,100.00
2023-12-10T16:25:42.613Z,100.00
2023-12-10T16:28:10.839Z,100.00
2023-12-10T16:30:40.129Z,100.00
2023-12-10T16:33:07.148Z,100.00
2023-12-10T16:35:34.001Z,100.00
2023-12-10T16:38:02.727Z,100.00
2023-12-10T16:40:29.976Z,100.00
2023-12-10T16:43:00.076Z,100.00
2023-12-10T16:45:28.066Z,100.00
2023-12-10T16:47:56.499Z,100.00
2023-12-10T16:50:23.357Z,100.00
2023-12-10T16:52:52.503Z,100.00
2023-12-10T16:55:22.056Z,100.00
2023-12-10T16:57:50.389Z,100.00
2023-12-10T17:00:18.803Z,100.00
2023-12-10T17:02:46.803Z,100.00
2023-12-10T17:05:13.932Z,100.00
2023-12-10T17:07:43.248Z,100.00
2023-12-10T17:10:11.823Z,100.00
2023-12-10T17:12:39.739Z,100.00
2023-12-10T17:15:07.947Z,100.00
2023-12-10T17:17:35.547Z,100.00
2023-12-10T17:20:03.104Z,100.00
2023-12-10T17:22:30.123Z,100.00
2023-12-10T17:24:58.631Z,100.00
2023-12-10T17:27:25.655Z,100.00
2023-12-10T17:29:53.123Z,100.00
2023-12-10T17:32:19.983Z,100.00
2023-12-10T17:34:48.033Z,100.00
2023-12-10T17:37:14.839Z,100.00
2023-12-10T17:39:41.804Z,100.00
2023-12-10T17:42:10.955Z,100.00
2023-12-10T17:44:47.300Z,100.00
2023-12-10T17:47:21.826Z,100.00
2023-12-10T17:49:49.226Z,100.00
2023-12-10T17:52:16.746Z,100.00
2023-12-10T17:54:44.067Z,100.00
2023-12-10T17:57:12.773Z,100.00
2023-12-10T17:59:40.065Z,100.00
2023-12-10T18:02:07.969Z,100.00
2023-12-10T18:04:34.830Z,100.00
2023-12-10T18:07:01.952Z,100.00
2023-12-10T18:09:30.163Z,100.00
2023-12-10T18:11:58.273Z,100.00
2023-12-10T18:14:26.493Z,100.00
2023-12-10T18:16:53.823Z,100.00
2023-12-10T18:19:21.226Z,100.00
2023-12-10T18:21:49.656Z,100.00
2023-12-10T18:24:18.090Z,100.00
2023-12-10T18:26:48.954Z,100.00
2023-12-10T18:29:17.204Z,100.00
2023-12-10T18:31:46.248Z,100.00
2023-12-10T18:34:13.740Z,100.00
2023-12-10T18:36:41.137Z,100.00
2023-12-10T18:39:09.459Z,100.00
2023-12-10T18:41:36.464Z,100.00
2023-12-10T18:44:03.748Z,100.00
2023-12-10T18:46:31.990Z,100.00
2023-12-10T18:48:59.345Z,100.00
2023-12-10T18:51:26.348Z,100.00
2023-12-10T18:53:53.643Z,100.00
2023-12-10T18:56:21.905Z,100.00
2023-12-10T18:58:50.292Z,100.00
2023-12-10T19:01:17.606Z,100.00
2023-12-10T19:03:48.494Z,100.00
2023-12-10T19:06:15.981Z,100.00
2023-12-10T19:08:43.329Z,100.00
2023-12-10T19:11:13.832Z,100.00
2023-12-10T19:13:41.182Z,100.00
2023-12-10T19:16:08.586Z,100.00
2023-12-10T19:18:41.937Z,100.00
2023-12-10T19:21:11.849Z,100.00
2023-12-10T19:23:42.081Z,100.00
2023-12-10T19:26:13.049Z,100.00
2023-12-10T19:28:40.271Z,100.00
2023-12-10T19:31:07.535Z,100.00
2023-12-10T19:33:35.302Z,100.00
2023-12-10T19:36:02.567Z,100.00
2023-12-10T19:38:29.515Z,100.00
2023-12-10T19:40:58.407Z,100.00
2023-12-10T19:43:26.445Z,100.00
2023-12-10T19:45:56.852Z,100.00
2023-12-10T19:48:26.385Z,100.00
2023-12-10T19:50:57.172Z,100.00
2023-12-10T19:53:24.390Z,100.00
2023-12-10T19:55:51.973Z,100.00
2023-12-10T19:58:19.407Z,100.00
2023-12-10T20:00:48.214Z,100.00
2023-12-10T20:03:18.779Z,100.00
2023-12-10T20:05:45.834Z,100.00
2023-12-10T20:08:12.751Z,100.00
2023-12-10T20:10:42.542Z,100.00
2023-12-10T20:13:11.825Z,100.00
2023-12-10T20:15:39.284Z,100.00
2023-12-10T20:18:06.822Z,100.00
2023-12-10T20:20:35.107Z,100.00
2023-12-10T20:23:02.068Z,100.00
2023-12-10T20:25:32.909Z,100.00
2023-12-10T20:28:03.279Z,100.00
2023-12-10T20:30:33.054Z,100.00
2023-12-10T20:33:00.538Z,100.00
2023-12-10T20:35:28.761Z,100.00
2023-12-10T20:38:00.501Z,100.00
2023-12-10T20:40:28.578Z,100.00
2023-12-10T20:42:57.700Z,100.00
2023-12-10T20:45:24.689Z,100.00
2023-12-10T20:47:52.646Z,100.00
2023-12-10T20:50:22.344Z,100.00
2023-12-10T20:52:49.604Z,100.00
2023-12-10T20:55:16.827Z,100.00
2023-12-10T20:57:45.065Z,100.00
2023-12-10T21:00:13.471Z,100.00
2023-12-10T21:02:40.683Z,100.00
2023-12-10T21:05:08.266Z,100.00
2023-12-10T21:07:35.729Z,100.00
2023-12-10T21:10:03.237Z,100.00
2023-12-10T21:12:30.577Z,100.00
2023-12-10T21:15:00.897Z,100.00
2023-12-10T21:17:29.175Z,100.00
2023-12-10T21:19:58.406Z,100.00
2023-12-10T21:22:26.387Z,100.00
2023-12-10T21:24:53.298Z,100.00
2023-12-10T21:27:20.198Z,100.00
2023-12-10T21:29:47.121Z,100.00
2023-12-10T21:32:16.119Z,100.00
2023-12-10T21:34:45.129Z,100.00
2023-12-10T21:37:12.960Z,100.00
2023-12-10T21:39:40.383Z,100.00
2023-12-10T21:42:07.648Z,100.00
2023-12-10T21:44:35.258Z,100.00
2023-12-10T21:47:02.535Z,100.00
2023-12-10T21:49:30.021Z,100.00
2023-12-10T21:51:57.431Z,100.00
2023-12-10T21:54:27.014Z,100.00
2023-12-10T21:56:54.493Z,100.00
2023-12-10T21:59:23.241Z,100.00
2023-12-10T22:01:50.999Z,100.00
2023-12-10T22:04:18.128Z,100.00
2023-12-10T22:06:46.232Z,100.00
2023-12-10T22:09:15.145Z,100.00
2023-12-10T22:11:44.307Z,100.00
2023-12-10T22:14:11.592Z,100.00
2023-12-10T22:16:39.978Z,100.00
2023-12-10T22:19:07.236Z,100.00
2023-12-10T22:21:35.914Z,100.00
2023-12-10T22:24:03.071Z,100.00
2023-12-10T22:26:32.508Z,100.00
2023-12-10T22:29:00.631Z,100.00
2023-12-10T22:31:27.975Z,100.00
2023-12-10T22:33:54.957Z,100.00
2023-12-10T22:36:22.794Z,100.00
2023-12-10T22:38:50.805Z,100.00
2023-12-10T22:41:17.696Z,100.00
2023-12-10T22:43:46.790Z,100.00
2023-12-10T22:46:13.710Z,100.00
2023-12-10T22:48:44.778Z,100.00
2023-12-10T22:51:12.218Z,100.00
2023-12-10T22:53:41.201Z,100.00
2023-12-10T22:56:08.441Z,100.00
2023-12-10T22:58:36.589Z,100.00
2023-12-10T23:01:05.008Z,100.00
2023-12-10T23:03:32.132Z,100.00
2023-12-10T23:05:58.925Z,100.00
2023-12-10T23:08:25.888Z,100.00
2023-12-10T23:10:53.054Z,100.00
2023-12-10T23:13:20.697Z,100.00
2023-12-10T23:16:15.494Z,100.00
2023-12-10T23:18:46.033Z,100.00
2023-12-10T23:21:13.477Z,100.00
2023-12-10T23:23:40.987Z,100.00
2023-12-10T23:26:07.786Z,100.00
2023-12-10T23:28:35.738Z,100.00
2023-12-10T23:31:03.838Z,100.00
2023-12-10T23:33:33.264Z,100.00
2023-12-10T23:36:00.783Z,100.00
2023-12-10T23:38:27.662Z,100.00
2023-12-10T23:40:54.591Z,100.00
2023-12-10T23:43:21.490Z,100.00
2023-12-10T23:45:50.031Z,100.00
2023-12-10T23:48:19.405Z,100.00
2023-12-10T23:50:47.027Z,100.00
2023-12-10T23:53:15.040Z,100.00
2023-12-10T23:55:41.905Z,100.00
2023-12-10T23:58:09.975Z,100.00
